Airfield :
LOGIN :

Register | Disclaimer

   EN    FR    IT 

 










Legend :    VFR   Marginal VFR   IFR   Intensive IFR   Very Intensive IFR
Visi :
Ceiling :
>= 8 km
>= 3000ft
5 to 8 km
1000 to 3000 ft
1500m to 5 km
500 to 1000 ft
800 to 1500m
200 to 500 ft
< 800m
< 200 ft
Symbols :   Thunderstorms  Fog  Heavy snow  Heavy precipitations  Wind > 20 kt
SIGMETs :     Misc.  Thunderstorms  Icing  Turbulence  Mountain Waves  Volcanic Ashes







- Airport Elevation : 788 ft
- IATA code : DCM
- Download approach charts


LFCK - Castres-Mazamet

CURRENT METAR :
  • 171830Z AUTO 26009KT 9999 BKN033 BKN042 OVC054 07/04 Q1019 TEMPO 4000 SHRA BKN010 SCT016TCU

EXPIRED METARs :
  • 171800Z AUTO VRB02KT 9999 FEW025 BKN034 BKN042 06/05 Q1019 TEMPO 4000 SHRA BKN010 SCT016TCU
  • 171730Z AUTO 27005KT 9999 SCT035 OVC043 06/05 Q1019 TEMPO 4000 -SHRA BKN013 SCT016TCU
  • 171700Z AUTO 28008KT 260V320 9999 -RA BKN028 BKN034 BKN040 07/04 Q1018 TEMPO 4000 -SHRA BKN013 SCT016TCU
  • 171630Z AUTO 31003KT 280V350 8000 3700 -RA BKN028/// BKN035/// OVC047/// ///TCU 07/04 Q1018 TEMPO 4000 -SHRA BKN013 SCT016TCU
  • 171600Z AUTO 34004KT 310V010 9999 SCT028 SCT033 BKN054 07/04 Q1018 TEMPO 4000 -SHRA BKN013 SCT016TCU

TAF TAF LFCK
Valid from the 17 at 18:00 until the 18 at 03:00 UTC


171700Z 1718/1803 30010KT 9999 SCT015 BKN025
TEMPO 1718/1803 4000 SHRA BKN010 SCT016TCU
No reported NOTAMs for that airfield.



MET'MAP, your aeronautical weather chart ! - Copyright ORBIFLY December 2007 - Disclaimer

ORBIFLY MET'MAP TEAM :

Programming & Development : Alexandra Zaïnal
Concept & Development : Baudouin d'Aumeries
Co-Development & Prog : Marc-Olivier Méhu
Technical & hardware support : Manuel Goepfert

Contact : metmap@orbifly.com




SOURCES & CREDITS :

   NOAA